sensor_id;sensor_type;location;lat;lon;timestamp;temperature;humidity
22925;DHT22;11628;51.072;3.712;2024-02-26T00:01:00;9.30;99.90
22925;DHT22;11628;51.072;3.712;2024-02-26T00:03:29;9.40;99.90
22925;DHT22;11628;51.072;3.712;2024-02-26T00:05:54;9.50;99.90
22925;DHT22;11628;51.072;3.712;2024-02-26T00:08:21;9.50;99.90
22925;DHT22;11628;51.072;3.712;2024-02-26T00:10:47;9.50;99.90
22925;DHT22;11628;51.072;3.712;2024-02-26T00:13:14;9.50;99.90
22925;DHT22;11628;51.072;3.712;2024-02-26T00:15:40;9.40;99.90
22925;DHT22;11628;51.072;3.712;2024-02-26T00:18:06;9.40;99.90
22925;DHT22;11628;51.072;3.712;2024-02-26T00:20:34;9.40;99.90
22925;DHT22;11628;51.072;3.712;2024-02-26T00:23:04;9.40;99.90
22925;DHT22;11628;51.072;3.712;2024-02-26T00:25:30;9.40;99.90
22925;DHT22;11628;51.072;3.712;2024-02-26T00:27:56;9.40;99.90
22925;DHT22;11628;51.072;3.712;2024-02-26T00:30:21;9.40;99.90
22925;DHT22;11628;51.072;3.712;2024-02-26T00:32:50;9.40;99.90
22925;DHT22;11628;51.072;3.712;2024-02-26T00:35:16;9.40;99.90
22925;DHT22;11628;51.072;3.712;2024-02-26T00:37:46;9.40;99.90
22925;DHT22;11628;51.072;3.712;2024-02-26T00:40:18;9.30;99.90
22925;DHT22;11628;51.072;3.712;2024-02-26T00:42:46;9.20;99.90
22925;DHT22;11628;51.072;3.712;2024-02-26T00:45:13;9.30;99.90
22925;DHT22;11628;51.072;3.712;2024-02-26T00:47:39;9.20;99.90
22925;DHT22;11628;51.072;3.712;2024-02-26T00:50:07;9.20;99.90
22925;DHT22;11628;51.072;3.712;2024-02-26T00:52:36;9.20;99.90
22925;DHT22;11628;51.072;3.712;2024-02-26T00:55:02;9.10;99.90
22925;DHT22;11628;51.072;3.712;2024-02-26T00:57:28;9.10;99.90
22925;DHT22;11628;51.072;3.712;2024-02-26T00:59:54;9.10;99.90
22925;DHT22;11628;51.072;3.712;2024-02-26T01:02:22;9.10;99.90
22925;DHT22;11628;51.072;3.712;2024-02-26T01:04:50;9.10;99.90
22925;DHT22;11628;51.072;3.712;2024-02-26T01:07:16;9.10;99.90
22925;DHT22;11628;51.072;3.712;2024-02-26T01:09:44;9.10;99.90
22925;DHT22;11628;51.072;3.712;2024-02-26T01:12:09;9.00;99.90
22925;DHT22;11628;51.072;3.712;2024-02-26T01:14:35;8.90;99.90
22925;DHT22;11628;51.072;3.712;2024-02-26T01:17:01;8.90;99.90
22925;DHT22;11628;51.072;3.712;2024-02-26T01:19:29;9.00;99.90
22925;DHT22;11628;51.072;3.712;2024-02-26T01:21:57;9.00;99.90
22925;DHT22;11628;51.072;3.712;2024-02-26T01:24:27;9.00;99.90
22925;DHT22;11628;51.072;3.712;2024-02-26T01:26:53;9.00;99.90
22925;DHT22;11628;51.072;3.712;2024-02-26T01:29:21;8.90;99.90
22925;DHT22;11628;51.072;3.712;2024-02-26T01:31:46;8.90;99.90
22925;DHT22;11628;51.072;3.712;2024-02-26T01:34:12;8.80;99.90
22925;DHT22;11628;51.072;3.712;2024-02-26T01:36:38;8.70;99.90
22925;DHT22;11628;51.072;3.712;2024-02-26T01:39:04;8.70;99.90
22925;DHT22;11628;51.072;3.712;2024-02-26T01:41:29;8.70;99.90
22925;DHT22;11628;51.072;3.712;2024-02-26T01:43:55;8.70;99.90
22925;DHT22;11628;51.072;3.712;2024-02-26T01:46:21;8.80;99.90
22925;DHT22;11628;51.072;3.712;2024-02-26T01:48:47;8.80;99.90
22925;DHT22;11628;51.072;3.712;2024-02-26T01:51:15;8.80;99.90
22925;DHT22;11628;51.072;3.712;2024-02-26T01:53:45;8.80;99.90
22925;DHT22;11628;51.072;3.712;2024-02-26T01:56:16;8.80;99.90
22925;DHT22;11628;51.072;3.712;2024-02-26T01:58:43;8.70;99.90
22925;DHT22;11628;51.072;3.712;2024-02-26T02:01:09;8.90;99.90
22925;DHT22;11628;51.072;3.712;2024-02-26T02:03:36;8.80;99.90
22925;DHT22;11628;51.072;3.712;2024-02-26T02:06:05;8.70;99.90
22925;DHT22;11628;51.072;3.712;2024-02-26T02:08:33;8.70;99.90
22925;DHT22;11628;51.072;3.712;2024-02-26T02:11:00;8.60;99.90
22925;DHT22;11628;51.072;3.712;2024-02-26T02:13:26;8.60;99.90
22925;DHT22;11628;51.072;3.712;2024-02-26T02:15:52;8.60;99.90
22925;DHT22;11628;51.072;3.712;2024-02-26T02:18:19;8.60;99.90
22925;DHT22;11628;51.072;3.712;2024-02-26T02:20:44;8.50;99.90
22925;DHT22;11628;51.072;3.712;2024-02-26T02:23:12;8.50;99.90
22925;DHT22;11628;51.072;3.712;2024-02-26T02:25:40;8.60;99.90
22925;DHT22;11628;51.072;3.712;2024-02-26T02:28:06;8.70;99.90
22925;DHT22;11628;51.072;3.712;2024-02-26T02:30:32;8.70;99.90
22925;DHT22;11628;51.072;3.712;2024-02-26T02:33:01;8.80;99.90
22925;DHT22;11628;51.072;3.712;2024-02-26T02:35:26;8.80;99.90
22925;DHT22;11628;51.072;3.712;2024-02-26T02:37:52;8.80;99.90
22925;DHT22;11628;51.072;3.712;2024-02-26T02:40:18;8.70;99.90
22925;DHT22;11628;51.072;3.712;2024-02-26T02:42:44;8.60;99.90
22925;DHT22;11628;51.072;3.712;2024-02-26T02:45:10;8.60;99.90
22925;DHT22;11628;51.072;3.712;2024-02-26T02:47:37;8.50;99.90
22925;DHT22;11628;51.072;3.712;2024-02-26T02:50:04;8.50;99.90
22925;DHT22;11628;51.072;3.712;2024-02-26T02:52:29;8.50;99.90
22925;DHT22;11628;51.072;3.712;2024-02-26T02:54:55;8.40;99.90
22925;DHT22;11628;51.072;3.712;2024-02-26T02:57:23;8.50;99.90
22925;DHT22;11628;51.072;3.712;2024-02-26T02:59:51;8.50;99.90
22925;DHT22;11628;51.072;3.712;2024-02-26T03:02:17;8.40;99.90
22925;DHT22;11628;51.072;3.712;2024-02-26T03:04:43;8.50;99.90
22925;DHT22;11628;51.072;3.712;2024-02-26T03:07:11;8.40;99.90
22925;DHT22;11628;51.072;3.712;2024-02-26T03:09:36;8.50;99.90
22925;DHT22;11628;51.072;3.712;2024-02-26T03:12:04;8.50;99.90
22925;DHT22;11628;51.072;3.712;2024-02-26T03:14:30;8.50;99.90
22925;DHT22;11628;51.072;3.712;2024-02-26T03:16:57;8.50;99.90
22925;DHT22;11628;51.072;3.712;2024-02-26T03:19:25;8.40;99.90
22925;DHT22;11628;51.072;3.712;2024-02-26T03:21:53;8.50;99.90
22925;DHT22;11628;51.072;3.712;2024-02-26T03:24:21;8.50;99.90
22925;DHT22;11628;51.072;3.712;2024-02-26T03:26:48;8.50;99.90
22925;DHT22;11628;51.072;3.712;2024-02-26T03:29:14;8.40;99.90
22925;DHT22;11628;51.072;3.712;2024-02-26T03:31:40;8.30;99.90
22925;DHT22;11628;51.072;3.712;2024-02-26T03:34:08;8.30;99.90
22925;DHT22;11628;51.072;3.712;2024-02-26T03:36:38;8.20;99.90
22925;DHT22;11628;51.072;3.712;2024-02-26T03:39:03;8.10;99.90
22925;DHT22;11628;51.072;3.712;2024-02-26T03:41:36;8.10;99.90
22925;DHT22;11628;51.072;3.712;2024-02-26T03:44:04;8.20;99.90
22925;DHT22;11628;51.072;3.712;2024-02-26T03:46:32;8.10;99.90
22925;DHT22;11628;51.072;3.712;2024-02-26T03:48:58;8.10;99.90
22925;DHT22;11628;51.072;3.712;2024-02-26T03:51:26;8.00;99.90
22925;DHT22;11628;51.072;3.712;2024-02-26T03:53:57;8.00;99.90
22925;DHT22;11628;51.072;3.712;2024-02-26T03:56:23;8.00;99.90
22925;DHT22;11628;51.072;3.712;2024-02-26T03:58:49;8.00;99.90
22925;DHT22;11628;51.072;3.712;2024-02-26T04:01:14;8.00;99.90
22925;DHT22;11628;51.072;3.712;2024-02-26T04:03:41;8.10;99.90
22925;DHT22;11628;51.072;3.712;2024-02-26T04:06:11;8.10;99.90
22925;DHT22;11628;51.072;3.712;2024-02-26T04:08:40;8.10;99.90
22925;DHT22;11628;51.072;3.712;2024-02-26T04:11:08;8.10;99.90
22925;DHT22;11628;51.072;3.712;2024-02-26T04:13:36;8.10;99.90
22925;DHT22;11628;51.072;3.712;2024-02-26T04:16:05;8.10;99.90
22925;DHT22;11628;51.072;3.712;2024-02-26T04:18:37;8.10;99.90
22925;DHT22;11628;51.072;3.712;2024-02-26T04:21:05;8.10;99.90
22925;DHT22;11628;51.072;3.712;2024-02-26T04:23:32;8.10;99.90
22925;DHT22;11628;51.072;3.712;2024-02-26T04:25:58;8.20;99.90
22925;DHT22;11628;51.072;3.712;2024-02-26T04:28:24;8.20;99.90
22925;DHT22;11628;51.072;3.712;2024-02-26T04:30:51;8.20;99.90
22925;DHT22;11628;51.072;3.712;2024-02-26T04:33:18;8.20;99.90
22925;DHT22;11628;51.072;3.712;2024-02-26T04:35:44;8.20;99.90
22925;DHT22;11628;51.072;3.712;2024-02-26T04:38:10;8.30;99.90
22925;DHT22;11628;51.072;3.712;2024-02-26T04:40:38;8.30;99.90
22925;DHT22;11628;51.072;3.712;2024-02-26T04:43:06;8.30;99.90
22925;DHT22;11628;51.072;3.712;2024-02-26T04:45:31;8.40;99.90
22925;DHT22;11628;51.072;3.712;2024-02-26T04:48:02;8.40;99.90
22925;DHT22;11628;51.072;3.712;2024-02-26T04:50:30;8.40;99.90
22925;DHT22;11628;51.072;3.712;2024-02-26T04:52:58;8.40;99.90
22925;DHT22;11628;51.072;3.712;2024-02-26T04:55:24;8.40;99.90
22925;DHT22;11628;51.072;3.712;2024-02-26T04:57:50;8.40;99.90
22925;DHT22;11628;51.072;3.712;2024-02-26T05:00:16;8.40;99.90
22925;DHT22;11628;51.072;3.712;2024-02-26T05:02:41;8.40;99.90
22925;DHT22;11628;51.072;3.712;2024-02-26T05:05:08;8.40;99.90
22925;DHT22;11628;51.072;3.712;2024-02-26T05:07:39;8.40;99.90
22925;DHT22;11628;51.072;3.712;2024-02-26T05:10:11;8.30;99.90
22925;DHT22;11628;51.072;3.712;2024-02-26T05:12:40;8.20;99.90
22925;DHT22;11628;51.072;3.712;2024-02-26T05:15:08;8.30;99.90
22925;DHT22;11628;51.072;3.712;2024-02-26T05:17:36;8.30;99.90
22925;DHT22;11628;51.072;3.712;2024-02-26T05:20:02;8.40;99.90
22925;DHT22;11628;51.072;3.712;2024-02-26T05:22:28;8.30;99.90
22925;DHT22;11628;51.072;3.712;2024-02-26T05:24:56;8.30;99.90
22925;DHT22;11628;51.072;3.712;2024-02-26T05:27:22;8.30;99.90
22925;DHT22;11628;51.072;3.712;2024-02-26T05:29:47;8.30;99.90
22925;DHT22;11628;51.072;3.712;2024-02-26T05:32:16;8.30;99.90
22925;DHT22;11628;51.072;3.712;2024-02-26T05:34:41;8.30;99.90
22925;DHT22;11628;51.072;3.712;2024-02-26T05:37:09;8.40;99.90
22925;DHT22;11628;51.072;3.712;2024-02-26T05:39:35;8.30;99.90
22925;DHT22;11628;51.072;3.712;2024-02-26T05:42:01;8.40;99.90
22925;DHT22;11628;51.072;3.712;2024-02-26T05:44:27;8.30;99.90
22925;DHT22;11628;51.072;3.712;2024-02-26T05:46:53;8.40;99.90
22925;DHT22;11628;51.072;3.712;2024-02-26T05:49:18;8.40;99.90
22925;DHT22;11628;51.072;3.712;2024-02-26T05:51:44;8.50;99.90
22925;DHT22;11628;51.072;3.712;2024-02-26T05:54:10;8.50;99.90
22925;DHT22;11628;51.072;3.712;2024-02-26T05:56:35;8.40;99.90
22925;DHT22;11628;51.072;3.712;2024-02-26T05:59:01;8.40;99.90
22925;DHT22;11628;51.072;3.712;2024-02-26T06:01:27;8.30;99.90
22925;DHT22;11628;51.072;3.712;2024-02-26T06:03:53;8.20;99.90
22925;DHT22;11628;51.072;3.712;2024-02-26T06:06:20;8.20;99.90
22925;DHT22;11628;51.072;3.712;2024-02-26T06:08:48;8.30;99.90
22925;DHT22;11628;51.072;3.712;2024-02-26T06:11:16;8.30;99.90
22925;DHT22;11628;51.072;3.712;2024-02-26T06:13:42;8.30;99.90
22925;DHT22;11628;51.072;3.712;2024-02-26T06:16:10;8.30;99.90
22925;DHT22;11628;51.072;3.712;2024-02-26T06:18:36;8.30;99.90
22925;DHT22;11628;51.072;3.712;2024-02-26T06:21:01;8.30;99.90
22925;DHT22;11628;51.072;3.712;2024-02-26T06:23:30;8.30;99.90
22925;DHT22;11628;51.072;3.712;2024-02-26T06:25:55;8.20;99.90
22925;DHT22;11628;51.072;3.712;2024-02-26T06:28:21;8.20;99.90
22925;DHT22;11628;51.072;3.712;2024-02-26T06:30:47;8.10;99.90
22925;DHT22;11628;51.072;3.712;2024-02-26T06:33:15;8.10;99.90
22925;DHT22;11628;51.072;3.712;2024-02-26T06:35:41;8.10;99.90
22925;DHT22;11628;51.072;3.712;2024-02-26T06:38:07;8.20;99.90
22925;DHT22;11628;51.072;3.712;2024-02-26T06:40:33;8.30;99.90
22925;DHT22;11628;51.072;3.712;2024-02-26T06:42:59;8.30;99.90
22925;DHT22;11628;51.072;3.712;2024-02-26T06:45:24;8.20;99.90
22925;DHT22;11628;51.072;3.712;2024-02-26T06:47:55;8.20;99.90
22925;DHT22;11628;51.072;3.712;2024-02-26T06:50:21;8.20;99.90
22925;DHT22;11628;51.072;3.712;2024-02-26T06:52:49;8.20;99.90
22925;DHT22;11628;51.072;3.712;2024-02-26T06:55:15;8.20;99.90
22925;DHT22;11628;51.072;3.712;2024-02-26T06:57:43;8.30;99.90
22925;DHT22;11628;51.072;3.712;2024-02-26T07:00:11;8.20;99.90
22925;DHT22;11628;51.072;3.712;2024-02-26T07:02:42;8.20;99.90
22925;DHT22;11628;51.072;3.712;2024-02-26T07:05:08;8.20;99.90
22925;DHT22;11628;51.072;3.712;2024-02-26T07:07:36;8.20;99.90
22925;DHT22;11628;51.072;3.712;2024-02-26T07:10:02;8.20;99.90
22925;DHT22;11628;51.072;3.712;2024-02-26T07:12:32;8.20;99.90
22925;DHT22;11628;51.072;3.712;2024-02-26T07:14:58;8.10;99.90
22925;DHT22;11628;51.072;3.712;2024-02-26T07:17:26;8.20;99.90
22925;DHT22;11628;51.072;3.712;2024-02-26T07:19:51;8.10;99.90
22925;DHT22;11628;51.072;3.712;2024-02-26T07:22:21;8.20;99.90
22925;DHT22;11628;51.072;3.712;2024-02-26T07:24:46;8.30;99.90
22925;DHT22;11628;51.072;3.712;2024-02-26T07:27:13;8.30;99.90
22925;DHT22;11628;51.072;3.712;2024-02-26T07:29:38;8.30;99.90
22925;DHT22;11628;51.072;3.712;2024-02-26T07:32:05;8.30;99.90
22925;DHT22;11628;51.072;3.712;2024-02-26T07:34:30;8.20;99.90
22925;DHT22;11628;51.072;3.712;2024-02-26T07:36:56;8.10;99.90
22925;DHT22;11628;51.072;3.712;2024-02-26T07:39:22;8.10;99.90
22925;DHT22;11628;51.072;3.712;2024-02-26T07:41:48;8.10;99.90
22925;DHT22;11628;51.072;3.712;2024-02-26T07:44:19;8.20;99.90
22925;DHT22;11628;51.072;3.712;2024-02-26T07:46:45;8.30;99.90
22925;DHT22;11628;51.072;3.712;2024-02-26T07:49:15;8.40;99.90
22925;DHT22;11628;51.072;3.712;2024-02-26T07:51:43;8.40;99.90
22925;DHT22;11628;51.072;3.712;2024-02-26T07:54:08;8.40;99.90
22925;DHT22;11628;51.072;3.712;2024-02-26T07:56:34;8.30;99.90
22925;DHT22;11628;51.072;3.712;2024-02-26T07:59:00;8.20;99.90
22925;DHT22;11628;51.072;3.712;2024-02-26T08:01:27;8.30;99.90
22925;DHT22;11628;51.072;3.712;2024-02-26T08:03:54;8.30;99.90
22925;DHT22;11628;51.072;3.712;2024-02-26T08:06:19;8.30;99.90
22925;DHT22;11628;51.072;3.712;2024-02-26T08:08:45;8.30;99.90
22925;DHT22;11628;51.072;3.712;2024-02-26T08:11:10;8.40;99.90
22925;DHT22;11628;51.072;3.712;2024-02-26T08:13:38;8.40;99.90
22925;DHT22;11628;51.072;3.712;2024-02-26T08:16:07;8.30;99.90
22925;DHT22;11628;51.072;3.712;2024-02-26T08:18:32;8.30;99.90
22925;DHT22;11628;51.072;3.712;2024-02-26T08:21:00;8.40;99.90
22925;DHT22;11628;51.072;3.712;2024-02-26T08:23:26;8.40;99.90
22925;DHT22;11628;51.072;3.712;2024-02-26T08:25:52;8.40;99.90
22925;DHT22;11628;51.072;3.712;2024-02-26T08:28:17;8.40;99.90
22925;DHT22;11628;51.072;3.712;2024-02-26T08:30:45;8.40;99.90
22925;DHT22;11628;51.072;3.712;2024-02-26T08:33:13;8.40;99.90
22925;DHT22;11628;51.072;3.712;2024-02-26T08:35:41;8.30;99.90
22925;DHT22;11628;51.072;3.712;2024-02-26T08:38:07;8.20;99.90
22925;DHT22;11628;51.072;3.712;2024-02-26T08:40:33;8.30;99.90
22925;DHT22;11628;51.072;3.712;2024-02-26T08:42:58;8.40;99.90
22925;DHT22;11628;51.072;3.712;2024-02-26T08:45:24;8.40;99.90
22925;DHT22;11628;51.072;3.712;2024-02-26T08:47:52;8.30;99.90
22925;DHT22;11628;51.072;3.712;2024-02-26T08:50:17;8.30;99.90
22925;DHT22;11628;51.072;3.712;2024-02-26T08:52:45;8.40;99.90
22925;DHT22;11628;51.072;3.712;2024-02-26T08:55:16;8.30;99.90
22925;DHT22;11628;51.072;3.712;2024-02-26T08:57:42;8.30;99.90
22925;DHT22;11628;51.072;3.712;2024-02-26T09:00:08;8.30;99.90
22925;DHT22;11628;51.072;3.712;2024-02-26T09:02:34;8.30;99.90
22925;DHT22;11628;51.072;3.712;2024-02-26T09:05:02;8.20;99.90
22925;DHT22;11628;51.072;3.712;2024-02-26T09:07:28;8.20;99.90
22925;DHT22;11628;51.072;3.712;2024-02-26T09:09:54;8.10;99.90
22925;DHT22;11628;51.072;3.712;2024-02-26T09:12:22;8.10;99.90
22925;DHT22;11628;51.072;3.712;2024-02-26T09:14:50;8.00;99.90
22925;DHT22;11628;51.072;3.712;2024-02-26T09:17:16;8.10;99.90
22925;DHT22;11628;51.072;3.712;2024-02-26T09:19:44;8.10;99.90
22925;DHT22;11628;51.072;3.712;2024-02-26T09:22:09;8.10;99.90
22925;DHT22;11628;51.072;3.712;2024-02-26T09:24:38;8.00;99.90
22925;DHT22;11628;51.072;3.712;2024-02-26T09:27:04;8.00;99.90
22925;DHT22;11628;51.072;3.712;2024-02-26T09:29:30;8.00;99.90
22925;DHT22;11628;51.072;3.712;2024-02-26T09:31:58;8.00;99.90
22925;DHT22;11628;51.072;3.712;2024-02-26T09:34:26;7.90;99.90
22925;DHT22;11628;51.072;3.712;2024-02-26T09:36:54;8.00;99.90
22925;DHT22;11628;51.072;3.712;2024-02-26T09:39:19;8.10;99.90
22925;DHT22;11628;51.072;3.712;2024-02-26T09:41:48;8.20;99.90
22925;DHT22;11628;51.072;3.712;2024-02-26T09:44:22;8.20;99.90
22925;DHT22;11628;51.072;3.712;2024-02-26T09:46:52;8.10;99.90
22925;DHT22;11628;51.072;3.712;2024-02-26T09:49:20;7.90;99.90
22925;DHT22;11628;51.072;3.712;2024-02-26T09:51:50;7.90;99.90
22925;DHT22;11628;51.072;3.712;2024-02-26T09:54:17;8.00;99.90
22925;DHT22;11628;51.072;3.712;2024-02-26T09:56:43;7.80;99.90
22925;DHT22;11628;51.072;3.712;2024-02-26T09:59:13;7.90;99.90
22925;DHT22;11628;51.072;3.712;2024-02-26T10:01:44;7.90;99.90
22925;DHT22;11628;51.072;3.712;2024-02-26T10:04:14;7.90;99.90
22925;DHT22;11628;51.072;3.712;2024-02-26T10:06:41;8.00;99.90
22925;DHT22;11628;51.072;3.712;2024-02-26T10:09:09;8.10;99.90
22925;DHT22;11628;51.072;3.712;2024-02-26T10:11:41;8.20;99.90
22925;DHT22;11628;51.072;3.712;2024-02-26T10:14:11;8.20;99.90
22925;DHT22;11628;51.072;3.712;2024-02-26T10:16:39;8.10;99.90
22925;DHT22;11628;51.072;3.712;2024-02-26T10:19:05;8.10;99.90
22925;DHT22;11628;51.072;3.712;2024-02-26T10:21:36;8.10;99.90
22925;DHT22;11628;51.072;3.712;2024-02-26T10:24:04;8.10;99.90
22925;DHT22;11628;51.072;3.712;2024-02-26T10:26:46;8.20;99.90
22925;DHT22;11628;51.072;3.712;2024-02-26T10:29:14;8.10;99.90
22925;DHT22;11628;51.072;3.712;2024-02-26T10:31:43;8.10;99.90
22925;DHT22;11628;51.072;3.712;2024-02-26T10:34:08;8.10;99.90
22925;DHT22;11628;51.072;3.712;2024-02-26T10:36:36;8.10;99.90
22925;DHT22;11628;51.072;3.712;2024-02-26T10:39:05;8.00;99.90
22925;DHT22;11628;51.072;3.712;2024-02-26T10:41:32;8.10;99.90
22925;DHT22;11628;51.072;3.712;2024-02-26T10:44:00;8.10;99.90
22925;DHT22;11628;51.072;3.712;2024-02-26T10:46:28;8.20;99.90
22925;DHT22;11628;51.072;3.712;2024-02-26T10:48:54;8.30;99.90
22925;DHT22;11628;51.072;3.712;2024-02-26T10:51:26;8.40;99.90
22925;DHT22;11628;51.072;3.712;2024-02-26T10:53:58;8.40;99.90
22925;DHT22;11628;51.072;3.712;2024-02-26T10:56:28;8.40;99.90
22925;DHT22;11628;51.072;3.712;2024-02-26T10:58:58;8.50;99.90
22925;DHT22;11628;51.072;3.712;2024-02-26T11:01:27;8.50;99.90
22925;DHT22;11628;51.072;3.712;2024-02-26T11:03:59;8.40;99.90
22925;DHT22;11628;51.072;3.712;2024-02-26T11:06:27;8.40;99.90
22925;DHT22;11628;51.072;3.712;2024-02-26T11:08:54;8.50;99.90
22925;DHT22;11628;51.072;3.712;2024-02-26T11:11:25;8.50;99.90
22925;DHT22;11628;51.072;3.712;2024-02-26T11:13:53;8.50;99.90
22925;DHT22;11628;51.072;3.712;2024-02-26T11:16:23;8.50;99.90
22925;DHT22;11628;51.072;3.712;2024-02-26T11:18:52;8.60;99.90
22925;DHT22;11628;51.072;3.712;2024-02-26T11:21:21;8.60;99.90
22925;DHT22;11628;51.072;3.712;2024-02-26T11:23:56;8.60;99.90
22925;DHT22;11628;51.072;3.712;2024-02-26T11:26:23;8.60;99.90
22925;DHT22;11628;51.072;3.712;2024-02-26T11:28:50;8.60;99.90
22925;DHT22;11628;51.072;3.712;2024-02-26T11:31:16;8.60;99.90
22925;DHT22;11628;51.072;3.712;2024-02-26T11:33:46;8.70;99.90
22925;DHT22;11628;51.072;3.712;2024-02-26T11:36:12;8.70;99.90
22925;DHT22;11628;51.072;3.712;2024-02-26T11:38:40;8.70;99.90
22925;DHT22;11628;51.072;3.712;2024-02-26T11:41:07;8.60;99.90
22925;DHT22;11628;51.072;3.712;2024-02-26T11:43:52;8.70;99.90
22925;DHT22;11628;51.072;3.712;2024-02-26T11:46:32;8.70;99.90
22925;DHT22;11628;51.072;3.712;2024-02-26T11:51:56;8.70;99.90
22925;DHT22;11628;51.072;3.712;2024-02-26T11:54:56;8.70;99.90
22925;DHT22;11628;51.072;3.712;2024-02-26T11:59:52;8.70;99.90
22925;DHT22;11628;51.072;3.712;2024-02-26T12:02:49;8.70;99.90
22925;DHT22;11628;51.072;3.712;2024-02-26T12:05:19;8.70;99.90
22925;DHT22;11628;51.072;3.712;2024-02-26T12:07:52;8.80;99.90
22925;DHT22;11628;51.072;3.712;2024-02-26T12:10:32;8.80;99.90
22925;DHT22;11628;51.072;3.712;2024-02-26T12:13:16;8.70;99.90
22925;DHT22;11628;51.072;3.712;2024-02-26T12:18:18;8.70;99.90
22925;DHT22;11628;51.072;3.712;2024-02-26T12:20:44;8.60;99.90
22925;DHT22;11628;51.072;3.712;2024-02-26T12:23:14;8.50;99.90
22925;DHT22;11628;51.072;3.712;2024-02-26T12:25:41;8.50;99.90
22925;DHT22;11628;51.072;3.712;2024-02-26T12:28:09;8.50;99.90
22925;DHT22;11628;51.072;3.712;2024-02-26T12:30:35;8.60;99.90
22925;DHT22;11628;51.072;3.712;2024-02-26T12:33:01;8.70;99.90
22925;DHT22;11628;51.072;3.712;2024-02-26T12:35:29;8.70;99.90
22925;DHT22;11628;51.072;3.712;2024-02-26T12:37:58;8.70;99.90
22925;DHT22;11628;51.072;3.712;2024-02-26T12:40:24;8.80;99.90
22925;DHT22;11628;51.072;3.712;2024-02-26T12:42:56;8.70;99.90
22925;DHT22;11628;51.072;3.712;2024-02-26T12:45:22;8.70;99.90
22925;DHT22;11628;51.072;3.712;2024-02-26T12:47:47;8.80;99.90
22925;DHT22;11628;51.072;3.712;2024-02-26T12:50:17;8.80;99.90
22925;DHT22;11628;51.072;3.712;2024-02-26T12:52:47;8.80;99.90
22925;DHT22;11628;51.072;3.712;2024-02-26T12:55:20;8.80;99.90
22925;DHT22;11628;51.072;3.712;2024-02-26T12:57:49;8.80;99.90
22925;DHT22;11628;51.072;3.712;2024-02-26T13:00:20;8.80;99.90
22925;DHT22;11628;51.072;3.712;2024-02-26T13:02:48;8.80;99.90
22925;DHT22;11628;51.072;3.712;2024-02-26T13:05:15;8.80;99.90
22925;DHT22;11628;51.072;3.712;2024-02-26T13:07:44;8.80;99.90
22925;DHT22;11628;51.072;3.712;2024-02-26T13:10:10;8.80;99.90
22925;DHT22;11628;51.072;3.712;2024-02-26T13:12:46;8.70;99.90
22925;DHT22;11628;51.072;3.712;2024-02-26T13:15:17;8.80;99.90
22925;DHT22;11628;51.072;3.712;2024-02-26T13:17:46;8.80;99.90
22925;DHT22;11628;51.072;3.712;2024-02-26T13:20:12;8.70;99.90
22925;DHT22;11628;51.072;3.712;2024-02-26T13:22:40;8.80;99.90
22925;DHT22;11628;51.072;3.712;2024-02-26T13:25:06;8.80;99.90
22925;DHT22;11628;51.072;3.712;2024-02-26T13:27:35;8.80;99.90
22925;DHT22;11628;51.072;3.712;2024-02-26T13:32:35;8.80;99.90
22925;DHT22;11628;51.072;3.712;2024-02-26T13:35:08;9.00;99.90
22925;DHT22;11628;51.072;3.712;2024-02-26T13:37:38;8.90;99.90
22925;DHT22;11628;51.072;3.712;2024-02-26T13:40:07;8.80;99.90
22925;DHT22;11628;51.072;3.712;2024-02-26T13:42:39;8.70;99.90
22925;DHT22;11628;51.072;3.712;2024-02-26T13:45:07;8.80;99.90
22925;DHT22;11628;51.072;3.712;2024-02-26T13:47:36;8.80;99.90
22925;DHT22;11628;51.072;3.712;2024-02-26T13:50:06;8.70;99.90
22925;DHT22;11628;51.072;3.712;2024-02-26T13:52:35;8.70;99.90
22925;DHT22;11628;51.072;3.712;2024-02-26T13:55:03;8.60;99.90
22925;DHT22;11628;51.072;3.712;2024-02-26T13:57:29;8.60;99.90
22925;DHT22;11628;51.072;3.712;2024-02-26T13:59:57;8.60;99.90
22925;DHT22;11628;51.072;3.712;2024-02-26T14:02:25;8.80;99.90
22925;DHT22;11628;51.072;3.712;2024-02-26T14:04:53;8.80;99.90
22925;DHT22;11628;51.072;3.712;2024-02-26T14:07:19;8.80;99.90
22925;DHT22;11628;51.072;3.712;2024-02-26T14:09:45;8.70;99.90
22925;DHT22;11628;51.072;3.712;2024-02-26T14:12:11;8.70;99.90
22925;DHT22;11628;51.072;3.712;2024-02-26T14:14:37;8.70;99.90
22925;DHT22;11628;51.072;3.712;2024-02-26T14:17:04;8.70;99.90
22925;DHT22;11628;51.072;3.712;2024-02-26T14:19:33;8.80;99.90
22925;DHT22;11628;51.072;3.712;2024-02-26T14:22:04;8.90;99.90
22925;DHT22;11628;51.072;3.712;2024-02-26T14:24:29;8.80;99.90
22925;DHT22;11628;51.072;3.712;2024-02-26T14:26:55;8.80;99.90
22925;DHT22;11628;51.072;3.712;2024-02-26T14:29:21;8.90;99.90
22925;DHT22;11628;51.072;3.712;2024-02-26T14:31:49;8.80;99.90
22925;DHT22;11628;51.072;3.712;2024-02-26T14:34:14;8.60;99.90
22925;DHT22;11628;51.072;3.712;2024-02-26T14:36:42;8.70;99.90
22925;DHT22;11628;51.072;3.712;2024-02-26T14:39:11;8.70;99.90
22925;DHT22;11628;51.072;3.712;2024-02-26T14:41:38;8.80;99.90
22925;DHT22;11628;51.072;3.712;2024-02-26T14:44:04;8.80;99.90
22925;DHT22;11628;51.072;3.712;2024-02-26T14:46:30;8.80;99.90
22925;DHT22;11628;51.072;3.712;2024-02-26T14:48:56;8.90;99.90
22925;DHT22;11628;51.072;3.712;2024-02-26T14:51:24;9.00;99.90
22925;DHT22;11628;51.072;3.712;2024-02-26T14:53:51;8.90;99.90
22925;DHT22;11628;51.072;3.712;2024-02-26T14:56:17;8.80;99.90
22925;DHT22;11628;51.072;3.712;2024-02-26T14:58:43;8.80;99.90
22925;DHT22;11628;51.072;3.712;2024-02-26T15:01:11;8.70;99.90
22925;DHT22;11628;51.072;3.712;2024-02-26T15:03:37;8.70;99.90
22925;DHT22;11628;51.072;3.712;2024-02-26T15:06:05;8.80;99.90
22925;DHT22;11628;51.072;3.712;2024-02-26T15:08:31;8.90;99.90
22925;DHT22;11628;51.072;3.712;2024-02-26T15:11:00;9.10;99.90
22925;DHT22;11628;51.072;3.712;2024-02-26T15:13:31;9.20;99.90
22925;DHT22;11628;51.072;3.712;2024-02-26T15:15:56;9.20;99.90
22925;DHT22;11628;51.072;3.712;2024-02-26T15:18:22;9.10;99.90
22925;DHT22;11628;51.072;3.712;2024-02-26T15:20:51;9.00;99.90
22925;DHT22;11628;51.072;3.712;2024-02-26T15:23:20;9.00;99.90
22925;DHT22;11628;51.072;3.712;2024-02-26T15:25:48;9.00;99.90
22925;DHT22;11628;51.072;3.712;2024-02-26T15:28:13;8.80;99.90
22925;DHT22;11628;51.072;3.712;2024-02-26T15:30:44;8.90;99.90
22925;DHT22;11628;51.072;3.712;2024-02-26T15:33:12;8.90;99.90
22925;DHT22;11628;51.072;3.712;2024-02-26T15:35:39;8.80;99.90
22925;DHT22;11628;51.072;3.712;2024-02-26T15:38:05;8.90;99.90
22925;DHT22;11628;51.072;3.712;2024-02-26T15:40:30;8.90;99.90
22925;DHT22;11628;51.072;3.712;2024-02-26T15:42:56;9.00;99.90
22925;DHT22;11628;51.072;3.712;2024-02-26T15:45:22;8.90;99.90
22925;DHT22;11628;51.072;3.712;2024-02-26T15:47:50;8.80;99.90
22925;DHT22;11628;51.072;3.712;2024-02-26T15:50:15;8.80;99.90
22925;DHT22;11628;51.072;3.712;2024-02-26T15:52:41;8.90;99.90
22925;DHT22;11628;51.072;3.712;2024-02-26T15:55:10;8.90;99.90
22925;DHT22;11628;51.072;3.712;2024-02-26T15:57:37;8.80;99.90